sensor_id;sensor_type;location;lat;lon;timestamp;pressure;altitude;pressure_sealevel;temperature;humidity
44825;BME280;30542;47.928;2.138;2023-04-23T00:00:57;99778.78;;;19.50;52.63
44825;BME280;30542;47.928;2.138;2023-04-23T00:06:05;99772.34;;;19.51;52.69
44825;BME280;30542;47.928;2.138;2023-04-23T00:11:08;99768.88;;;19.50;52.25
44825;BME280;30542;47.928;2.138;2023-04-23T00:16:09;99773.13;;;19.56;52.55
44825;BME280;30542;47.928;2.138;2023-04-23T00:21:10;99773.16;;;19.51;52.35
44825;BME280;30542;47.928;2.138;2023-04-23T00:26:11;99768.88;;;19.50;52.05
44825;BME280;30542;47.928;2.138;2023-04-23T00:31:11;99764.09;;;19.47;52.06
44825;BME280;30542;47.928;2.138;2023-04-23T00:36:11;99765.69;;;19.48;52.28
44825;BME280;30542;47.928;2.138;2023-04-23T00:41:12;99754.75;;;19.45;52.17
44825;BME280;30542;47.928;2.138;2023-04-23T00:46:13;99755.28;;;19.47;52.00
44825;BME280;30542;47.928;2.138;2023-04-23T00:51:15;99746.47;;;19.46;51.89
44825;BME280;30542;47.928;2.138;2023-04-23T00:56:16;99743.25;;;19.44;52.07
44825;BME280;30542;47.928;2.138;2023-04-23T01:01:19;99742.22;;;19.45;52.05
44825;BME280;30542;47.928;2.138;2023-04-23T01:06:20;99736.03;;;19.45;51.85
44825;BME280;30542;47.928;2.138;2023-04-23T01:11:20;99725.94;;;19.36;51.94
44825;BME280;30542;47.928;2.138;2023-04-23T01:16:21;99737.41;;;19.42;51.75
44825;BME280;30542;47.928;2.138;2023-04-23T01:21:22;99718.97;;;19.41;51.81
44825;BME280;30542;47.928;2.138;2023-04-23T01:26:23;99712.31;;;19.38;51.69
44825;BME280;30542;47.928;2.138;2023-04-23T01:31:24;99709.91;;;19.36;51.78
44825;BME280;30542;47.928;2.138;2023-04-23T01:36:25;99712.56;;;19.36;51.97
44825;BME280;30542;47.928;2.138;2023-04-23T01:41:26;99692.84;;;19.32;51.79
44825;BME280;30542;47.928;2.138;2023-04-23T01:46:27;99689.38;;;19.32;51.92
44825;BME280;30542;47.928;2.138;2023-04-23T01:51:28;99698.47;;;19.31;51.60
44825;BME280;30542;47.928;2.138;2023-04-23T01:56:29;99689.94;;;19.29;51.84
44825;BME280;30542;47.928;2.138;2023-04-23T02:01:45;99689.94;;;19.29;52.04
44825;BME280;30542;47.928;2.138;2023-04-23T02:06:48;99678.72;;;19.27;51.79
44825;BME280;30542;47.928;2.138;2023-04-23T02:11:49;99681.38;;;19.27;51.85
44825;BME280;30542;47.928;2.138;2023-04-23T02:16:50;99673.91;;;19.24;51.95
44825;BME280;30542;47.928;2.138;2023-04-23T02:21:50;99668.88;;;19.22;51.61
44825;BME280;30542;47.928;2.138;2023-04-23T02:26:51;99655.81;;;19.21;51.67
44825;BME280;30542;47.928;2.138;2023-04-23T02:31:51;99660.88;;;19.17;51.67
44825;BME280;30542;47.928;2.138;2023-04-23T02:36:51;99652.59;;;19.19;51.55
44825;BME280;30542;47.928;2.138;2023-04-23T02:41:52;99652.34;;;19.20;51.70
44825;BME280;30542;47.928;2.138;2023-04-23T02:46:52;99655.00;;;19.20;51.22
44825;BME280;30542;47.928;2.138;2023-04-23T02:51:53;99653.66;;;19.18;51.84
44825;BME280;30542;47.928;2.138;2023-04-23T02:56:53;99647.78;;;19.16;51.56
44825;BME280;30542;47.928;2.138;2023-04-23T03:01:53;99642.22;;;19.12;51.35
44825;BME280;30542;47.928;2.138;2023-04-23T03:06:54;99630.72;;;19.11;51.61
44825;BME280;30542;47.928;2.138;2023-04-23T03:11:54;99637.44;;;19.09;51.20
44825;BME280;30542;47.928;2.138;2023-04-23T03:16:56;99620.63;;;19.08;51.33
44825;BME280;30542;47.928;2.138;2023-04-23T03:21:56;99628.88;;;19.07;51.56
44825;BME280;30542;47.928;2.138;2023-04-23T03:26:57;99630.25;;;19.04;51.45
44825;BME280;30542;47.928;2.138;2023-04-23T03:31:57;99629.16;;;19.05;51.29
44825;BME280;30542;47.928;2.138;2023-04-23T03:36:58;99623.28;;;19.08;51.32
44825;BME280;30542;47.928;2.138;2023-04-23T03:41:58;99617.41;;;19.06;51.76
44825;BME280;30542;47.928;2.138;2023-04-23T03:46:58;99608.31;;;19.07;51.01
44825;BME280;30542;47.928;2.138;2023-04-23T03:51:58;99598.69;;;19.11;50.70
44825;BME280;30542;47.928;2.138;2023-04-23T03:56:59;99602.44;;;19.10;51.28
44825;BME280;30542;47.928;2.138;2023-04-23T04:02:00;99590.72;;;19.06;50.70
44825;BME280;30542;47.928;2.138;2023-04-23T04:07:03;99575.75;;;19.10;50.99
44825;BME280;30542;47.928;2.138;2023-04-23T04:12:04;99564.56;;;19.03;50.84
44825;BME280;30542;47.928;2.138;2023-04-23T04:17:05;99566.69;;;19.06;50.71
44825;BME280;30542;47.928;2.138;2023-04-23T04:22:05;99564.03;;;19.06;50.62
44825;BME280;30542;47.928;2.138;2023-04-23T04:27:06;99542.19;;;19.04;50.77
44825;BME280;30542;47.928;2.138;2023-04-23T04:32:08;99534.69;;;19.06;50.83
44825;BME280;30542;47.928;2.138;2023-04-23T04:37:08;99525.63;;;19.02;51.06
44825;BME280;30542;47.928;2.138;2023-04-23T04:42:10;99516.56;;;18.98;50.72
44825;BME280;30542;47.928;2.138;2023-04-23T04:47:12;99505.66;;;18.95;51.04
44825;BME280;30542;47.928;2.138;2023-04-23T04:52:12;99505.66;;;18.95;50.61
44825;BME280;30542;47.928;2.138;2023-04-23T04:57:13;99500.59;;;18.93;50.91
44825;BME280;30542;47.928;2.138;2023-04-23T05:02:13;99500.59;;;18.93;50.79
44825;BME280;30542;47.928;2.138;2023-04-23T05:07:13;99491.28;;;18.91;50.81
44825;BME280;30542;47.928;2.138;2023-04-23T05:12:14;99495.03;;;18.90;51.10
44825;BME280;30542;47.928;2.138;2023-04-23T05:17:14;99497.19;;;18.87;50.95
44825;BME280;30542;47.928;2.138;2023-04-23T05:22:14;99499.56;;;18.89;51.05
44825;BME280;30542;47.928;2.138;2023-04-23T05:27:17;99507.84;;;18.87;50.76
44825;BME280;30542;47.928;2.138;2023-04-23T05:32:17;99507.28;;;18.91;50.83
44825;BME280;30542;47.928;2.138;2023-04-23T05:37:18;99505.16;;;18.93;50.62
44825;BME280;30542;47.928;2.138;2023-04-23T05:42:18;99490.44;;;18.95;51.08
44825;BME280;30542;47.928;2.138;2023-04-23T05:47:18;99498.44;;;19.00;50.99
44825;BME280;30542;47.928;2.138;2023-04-23T05:52:19;99502.94;;;19.05;51.25
44825;BME280;30542;47.928;2.138;2023-04-23T05:57:19;99507.44;;;19.09;50.75
44825;BME280;30542;47.928;2.138;2023-04-23T06:02:19;99515.41;;;19.15;50.64
44825;BME280;30542;47.928;2.138;2023-04-23T06:07:20;99515.38;;;19.20;50.67
44825;BME280;30542;47.928;2.138;2023-04-23T06:12:20;99510.00;;;19.25;50.57
44825;BME280;30542;47.928;2.138;2023-04-23T06:17:20;99501.97;;;19.30;50.80
44825;BME280;30542;47.928;2.138;2023-04-23T06:22:21;99500.31;;;19.34;50.76
44825;BME280;30542;47.928;2.138;2023-04-23T06:27:21;99497.09;;;19.37;50.65
44825;BME280;30542;47.928;2.138;2023-04-23T06:32:21;99475.16;;;19.40;50.61
44825;BME280;30542;47.928;2.138;2023-04-23T06:37:22;99475.69;;;19.42;50.22
44825;BME280;30542;47.928;2.138;2023-04-23T06:42:22;99472.47;;;19.45;50.10
44825;BME280;30542;47.928;2.138;2023-04-23T06:47:23;99467.63;;;19.47;50.09
44825;BME280;30542;47.928;2.138;2023-04-23T06:52:23;99467.06;;;19.50;49.99
44825;BME280;30542;47.928;2.138;2023-04-23T06:57:23;99460.94;;;19.50;50.30
44825;BME280;30542;47.928;2.138;2023-04-23T07:02:24;99452.63;;;19.51;50.01
44825;BME280;30542;47.928;2.138;2023-04-23T07:07:25;99454.47;;;19.56;49.91
44825;BME280;30542;47.928;2.138;2023-04-23T07:12:25;99451.53;;;19.57;50.19
44825;BME280;30542;47.928;2.138;2023-04-23T07:17:26;99446.41;;;19.61;49.86
44825;BME280;30542;47.928;2.138;2023-04-23T07:22:26;99446.66;;;19.65;49.89
44825;BME280;30542;47.928;2.138;2023-04-23T07:27:26;99420.50;;;19.61;49.86
44825;BME280;30542;47.928;2.138;2023-04-23T07:32:27;99426.31;;;19.69;49.79
44825;BME280;30542;47.928;2.138;2023-04-23T07:37:27;99420.72;;;19.70;49.86
44825;BME280;30542;47.928;2.138;2023-04-23T07:42:28;99435.66;;;19.71;49.65
44825;BME280;30542;47.928;2.138;2023-04-23T07:47:28;99435.34;;;19.73;50.20
44825;BME280;30542;47.928;2.138;2023-04-23T07:52:28;99428.38;;;19.77;49.81
44825;BME280;30542;47.928;2.138;2023-04-23T07:57:28;99396.84;;;19.79;50.07
44825;BME280;30542;47.928;2.138;2023-04-23T08:02:29;99345.09;;;19.70;51.09
44825;BME280;30542;47.928;2.138;2023-04-23T08:07:29;99344.91;;;19.85;51.13
44825;BME280;30542;47.928;2.138;2023-04-23T08:12:30;99317.63;;;19.88;51.16
44825;BME280;30542;47.928;2.138;2023-04-23T08:17:33;99291.69;;;19.89;51.39
44825;BME280;30542;47.928;2.138;2023-04-23T08:22:33;99278.63;;;19.87;51.39
44825;BME280;30542;47.928;2.138;2023-04-23T08:27:33;99250.28;;;19.86;51.15
44825;BME280;30542;47.928;2.138;2023-04-23T08:32:34;99252.47;;;19.84;51.30
44825;BME280;30542;47.928;2.138;2023-04-23T08:37:34;99273.84;;;19.84;50.92
44825;BME280;30542;47.928;2.138;2023-04-23T08:42:49;99266.94;;;19.83;51.15
44825;BME280;30542;47.928;2.138;2023-04-23T08:47:55;99256.22;;;19.83;50.85
44825;BME280;30542;47.928;2.138;2023-04-23T08:52:57;99263.47;;;19.82;50.79
44825;BME280;30542;47.928;2.138;2023-04-23T08:57:58;99252.78;;;19.82;50.82
44825;BME280;30542;47.928;2.138;2023-04-23T09:02:58;99252.47;;;19.84;50.99
44825;BME280;30542;47.928;2.138;2023-04-23T09:07:59;99239.19;;;19.79;51.19
44825;BME280;30542;47.928;2.138;2023-04-23T09:13:00;99241.78;;;19.84;51.48
44825;BME280;30542;47.928;2.138;2023-04-23T09:18:00;99220.41;;;19.84;51.26
44825;BME280;30542;47.928;2.138;2023-04-23T09:23:06;99214.28;;;19.83;51.10
44825;BME280;30542;47.928;2.138;2023-04-23T09:28:07;99206.75;;;19.85;51.17
44825;BME280;30542;47.928;2.138;2023-04-23T09:33:10;99210.72;;;19.88;51.18
44825;BME280;30542;47.928;2.138;2023-04-23T09:38:11;99190.94;;;19.89;51.00
44825;BME280;30542;47.928;2.138;2023-04-23T09:43:12;99192.50;;;19.90;51.03
44825;BME280;30542;47.928;2.138;2023-04-23T09:48:12;99167.66;;;19.90;50.75
44825;BME280;30542;47.928;2.138;2023-04-23T09:53:12;99174.91;;;19.89;50.63
44825;BME280;30542;47.928;2.138;2023-04-23T09:58:14;99166.78;;;19.94;50.93
44825;BME280;30542;47.928;2.138;2023-04-23T10:03:14;99161.44;;;19.94;51.06
44825;BME280;30542;47.928;2.138;2023-04-23T10:08:15;99162.53;;;19.93;51.00
44825;BME280;30542;47.928;2.138;2023-04-23T10:13:19;99152.84;;;19.97;51.33
44825;BME280;30542;47.928;2.138;2023-04-23T10:18:20;99153.06;;;20.01;51.82
44825;BME280;30542;47.928;2.138;2023-04-23T10:23:20;99145.75;;;20.06;51.67
44825;BME280;30542;47.928;2.138;2023-04-23T10:28:23;99132.38;;;20.06;51.83
44825;BME280;30542;47.928;2.138;2023-04-23T10:33:30;99135.50;;;20.14;51.86
44825;BME280;30542;47.928;2.138;2023-04-23T10:38:30;99137.78;;;20.20;51.15
44825;BME280;30542;47.928;2.138;2023-04-23T10:43:31;99121.13;;;20.23;50.95
44825;BME280;30542;47.928;2.138;2023-04-23T10:48:50;99109.66;;;20.23;50.78
44825;BME280;30542;47.928;2.138;2023-04-23T10:53:50;99116.78;;;20.27;50.79
44825;BME280;30542;47.928;2.138;2023-04-23T10:58:51;99115.41;;;20.30;50.98
44825;BME280;30542;47.928;2.138;2023-04-23T11:03:51;99108.69;;;20.32;51.20
44825;BME280;30542;47.928;2.138;2023-04-23T11:08:52;99096.69;;;20.30;51.49
44825;BME280;30542;47.928;2.138;2023-04-23T11:13:53;99100.47;;;20.29;51.34
44825;BME280;30542;47.928;2.138;2023-04-23T11:18:55;99127.22;;;20.29;51.63
44825;BME280;30542;47.928;2.138;2023-04-23T11:23:55;99133.13;;;20.26;51.69
44825;BME280;30542;47.928;2.138;2023-04-23T11:28:56;99131.56;;;20.25;51.55
44825;BME280;30542;47.928;2.138;2023-04-23T11:33:57;99124.13;;;20.22;51.52
44825;BME280;30542;47.928;2.138;2023-04-23T11:38:57;99129.69;;;20.25;51.70
44825;BME280;30542;47.928;2.138;2023-04-23T11:43:58;99138.47;;;20.26;52.07
44825;BME280;30542;47.928;2.138;2023-04-23T11:48:59;99155.84;;;20.28;52.37
44825;BME280;30542;47.928;2.138;2023-04-23T11:54:03;99155.00;;;20.28;52.96
44825;BME280;30542;47.928;2.138;2023-04-23T11:59:04;99177.13;;;20.33;53.31
44825;BME280;30542;47.928;2.138;2023-04-23T12:04:12;99165.56;;;20.38;53.24
44825;BME280;30542;47.928;2.138;2023-04-23T12:09:14;99171.69;;;20.39;53.25
44825;BME280;30542;47.928;2.138;2023-04-23T12:14:14;99184.28;;;20.38;53.24
44825;BME280;30542;47.928;2.138;2023-04-23T12:19:17;99185.38;;;20.37;52.96
44825;BME280;30542;47.928;2.138;2023-04-23T12:24:18;99194.97;;;20.38;53.27
44825;BME280;30542;47.928;2.138;2023-04-23T12:29:19;99191.78;;;20.36;52.93
44825;BME280;30542;47.928;2.138;2023-04-23T12:34:20;99185.63;;;20.35;52.52
44825;BME280;30542;47.928;2.138;2023-04-23T12:39:29;99168.59;;;20.31;52.24
44825;BME280;30542;47.928;2.138;2023-04-23T12:44:33;99174.94;;;20.35;52.41
44825;BME280;30542;47.928;2.138;2023-04-23T12:49:37;99181.38;;;20.34;51.97
44825;BME280;30542;47.928;2.138;2023-04-23T12:54:39;99197.75;;;20.33;51.52
44825;BME280;30542;47.928;2.138;2023-04-23T12:59:39;99197.22;;;20.31;50.90
44825;BME280;30542;47.928;2.138;2023-04-23T13:04:39;99208.72;;;20.31;51.16
44825;BME280;30542;47.928;2.138;2023-04-23T13:09:40;99193.75;;;20.30;50.77
44825;BME280;30542;47.928;2.138;2023-04-23T13:14:40;99201.47;;;20.32;50.39
44825;BME280;30542;47.928;2.138;2023-04-23T13:19:40;99209.22;;;20.33;50.16
44825;BME280;30542;47.928;2.138;2023-04-23T13:24:41;99211.91;;;20.33;50.28
44825;BME280;30542;47.928;2.138;2023-04-23T13:29:41;99214.78;;;20.37;50.12
44825;BME280;30542;47.928;2.138;2023-04-23T13:34:42;99220.13;;;20.37;50.18
44825;BME280;30542;47.928;2.138;2023-04-23T13:39:42;99217.47;;;20.37;50.20
44825;BME280;30542;47.928;2.138;2023-04-23T13:44:42;99214.78;;;20.37;50.26
44825;BME280;30542;47.928;2.138;2023-04-23T13:49:42;99219.03;;;20.38;50.47
44825;BME280;30542;47.928;2.138;2023-04-23T13:54:43;99238.84;;;20.37;50.07
44825;BME280;30542;47.928;2.138;2023-04-23T13:59:43;99234.28;;;20.38;50.04
44825;BME280;30542;47.928;2.138;2023-04-23T14:04:43;99234.28;;;20.38;50.42
44825;BME280;30542;47.928;2.138;2023-04-23T14:09:44;99242.00;;;20.39;50.02
44825;BME280;30542;47.928;2.138;2023-04-23T14:14:47;99234.28;;;20.38;50.41
44825;BME280;30542;47.928;2.138;2023-04-23T14:19:47;99229.16;;;20.41;50.22
44825;BME280;30542;47.928;2.138;2023-04-23T14:24:55;99221.63;;;20.43;50.24
44825;BME280;30542;47.928;2.138;2023-04-23T14:30:01;99220.03;;;20.42;50.24
44825;BME280;30542;47.928;2.138;2023-04-23T14:35:04;99224.03;;;20.45;50.14
44825;BME280;30542;47.928;2.138;2023-04-23T14:40:05;99234.72;;;20.45;50.34
44825;BME280;30542;47.928;2.138;2023-04-23T14:45:06;99243.22;;;20.47;50.07
44825;BME280;30542;47.928;2.138;2023-04-23T14:50:07;99227.75;;;20.44;50.31
44825;BME280;30542;47.928;2.138;2023-04-23T14:55:07;99242.69;;;20.50;50.13
44825;BME280;30542;47.928;2.138;2023-04-23T15:00:08;99246.44;;;20.49;50.11
44825;BME280;30542;47.928;2.138;2023-04-23T15:05:12;99244.56;;;20.49;50.09
44825;BME280;30542;47.928;2.138;2023-04-23T15:10:14;99237.03;;;20.51;50.16
44825;BME280;30542;47.928;2.138;2023-04-23T15:20:24;99242.91;;;20.53;49.54
44825;BME280;30542;47.928;2.138;2023-04-23T15:25:24;99237.53;;;20.53;50.10
44825;BME280;30542;47.928;2.138;2023-04-23T15:30:25;99238.81;;;20.56;50.08
44825;BME280;30542;47.928;2.138;2023-04-23T15:35:26;99244.97;;;20.56;49.88
44825;BME280;30542;47.928;2.138;2023-04-23T15:40:27;99247.63;;;20.56;49.97
44825;BME280;30542;47.928;2.138;2023-04-23T15:45:28;99236.94;;;20.56;50.15
44825;BME280;30542;47.928;2.138;2023-04-23T15:50:28;99239.63;;;20.56;50.28
44825;BME280;30542;47.928;2.138;2023-04-23T15:55:29;99240.44;;;20.57;50.07
44825;BME280;30542;47.928;2.138;2023-04-23T16:00:30;99241.22;;;20.57;50.13
44825;BME280;30542;47.928;2.138;2023-04-23T16:05:33;99253.50;;;20.58;50.26
44825;BME280;30542;47.928;2.138;2023-04-23T16:10:36;99260.44;;;20.59;50.23
44825;BME280;30542;47.928;2.138;2023-04-23T16:15:37;99272.72;;;20.60;50.06
44825;BME280;30542;47.928;2.138;2023-04-23T16:20:37;99275.91;;;20.63;49.89
44825;BME280;30542;47.928;2.138;2023-04-23T16:25:38;99262.81;;;20.61;49.92
44825;BME280;30542;47.928;2.138;2023-04-23T16:30:38;99250.25;;;20.62;49.86
44825;BME280;30542;47.928;2.138;2023-04-23T16:35:38;99245.97;;;20.60;49.84
44825;BME280;30542;47.928;2.138;2023-04-23T16:40:39;99241.50;;;20.56;49.98
44825;BME280;30542;47.928;2.138;2023-04-23T16:45:39;99245.06;;;20.51;49.94
44825;BME280;30542;47.928;2.138;2023-04-23T16:50:40;99281.47;;;20.47;49.99
44825;BME280;30542;47.928;2.138;2023-04-23T16:55:41;99337.16;;;20.45;50.02
44825;BME280;30542;47.928;2.138;2023-04-23T17:00:42;99330.50;;;20.43;50.00
44825;BME280;30542;47.928;2.138;2023-04-23T17:05:47;99323.03;;;20.40;50.01
44825;BME280;30542;47.928;2.138;2023-04-23T17:10:48;99325.50;;;20.36;50.25
44825;BME280;30542;47.928;2.138;2023-04-23T17:15:49;99331.16;;;20.34;50.38
44825;BME280;30542;47.928;2.138;2023-04-23T17:20:49;99320.81;;;20.28;50.24
44825;BME280;30542;47.928;2.138;2023-04-23T17:25:49;99340.03;;;20.30;50.10
44825;BME280;30542;47.928;2.138;2023-04-23T17:30:50;99365.19;;;20.29;50.30
44825;BME280;30542;47.928;2.138;2023-04-23T17:35:52;99350.75;;;20.30;50.17
44825;BME280;30542;47.928;2.138;2023-04-23T17:40:52;99339.25;;;20.29;49.99
44825;BME280;30542;47.928;2.138;2023-04-23T17:45:53;99324.78;;;20.30;49.88
44825;BME280;30542;47.928;2.138;2023-04-23T17:50:53;99314.09;;;20.30;50.13
44825;BME280;30542;47.928;2.138;2023-04-23T17:55:53;99306.84;;;20.31;50.26
44825;BME280;30542;47.928;2.138;2023-04-23T18:00:58;99300.41;;;20.32;50.15
44825;BME280;30542;47.928;2.138;2023-04-23T18:05:58;99311.41;;;20.30;50.43
44825;BME280;30542;47.928;2.138;2023-04-23T18:10:59;99314.66;;;20.27;50.55
44825;BME280;30542;47.928;2.138;2023-04-23T18:15:59;99316.06;;;20.25;50.67
44825;BME280;30542;47.928;2.138;2023-04-23T18:21:00;99328.09;;;20.22;50.78
44825;BME280;30542;47.928;2.138;2023-04-23T18:26:01;99322.53;;;20.19;50.75
44825;BME280;30542;47.928;2.138;2023-04-23T18:31:01;99323.13;;;20.16;50.85
44825;BME280;30542;47.928;2.138;2023-04-23T18:36:28;99309.59;;;20.07;51.07
44825;BME280;30542;47.928;2.138;2023-04-23T18:41:30;99326.59;;;20.16;50.71
44825;BME280;30542;47.928;2.138;2023-04-23T18:46:31;99338.16;;;20.11;50.99
44825;BME280;30542;47.928;2.138;2023-04-23T18:51:44;99340.31;;;20.09;51.09
44825;BME280;30542;47.928;2.138;2023-04-23T18:56:49;99345.44;;;20.06;50.61
44825;BME280;30542;47.928;2.138;2023-04-23T19:01:50;99337.72;;;20.04;51.11
44825;BME280;30542;47.928;2.138;2023-04-23T19:06:50;99351.09;;;20.04;51.22
44825;BME280;30542;47.928;2.138;2023-04-23T19:11:51;99350.56;;;20.02;51.24
44825;BME280;30542;47.928;2.138;2023-04-23T19:16:51;99348.19;;;20.01;51.26
44825;BME280;30542;47.928;2.138;2023-04-23T19:21:53;99350.34;;;19.99;51.34
44825;BME280;30542;47.928;2.138;2023-04-23T19:26:53;99461.00;;;19.98;51.37
44825;BME280;30542;47.928;2.138;2023-04-23T19:31:53;99470.91;;;19.97;51.46
44825;BME280;30542;47.928;2.138;2023-04-23T19:36:54;99469.09;;;19.93;51.32
44825;BME280;30542;47.928;2.138;2023-04-23T19:41:54;99484.63;;;19.91;51.46
44825;BME280;30542;47.928;2.138;2023-04-23T19:46:54;99485.69;;;19.90;51.60
44825;BME280;30542;47.928;2.138;2023-04-23T19:51:56;99486.47;;;19.90;51.25
44825;BME280;30542;47.928;2.138;2023-04-23T19:56:57;99491.63;;;19.86;51.42
44825;BME280;30542;47.928;2.138;2023-04-23T20:01:57;99485.75;;;19.84;51.25
44825;BME280;30542;47.928;2.138;2023-04-23T20:06:57;99485.25;;;19.82;51.23
44825;BME280;30542;47.928;2.138;2023-04-23T20:11:58;99494.91;;;19.78;51.27
44825;BME280;30542;47.928;2.138;2023-04-23T20:16:58;99510.88;;;19.83;51.40
44825;BME280;30542;47.928;2.138;2023-04-23T20:21:59;99515.69;;;19.81;51.31
44825;BME280;30542;47.928;2.138;2023-04-23T20:26:59;99520.25;;;19.81;51.18
44825;BME280;30542;47.928;2.138;2023-04-23T20:32:00;99521.03;;;19.81;51.23
44825;BME280;30542;47.928;2.138;2023-04-23T20:37:01;99532.53;;;19.82;51.40
44825;BME280;30542;47.928;2.138;2023-04-23T20:42:02;99534.69;;;19.80;51.11
44825;BME280;30542;47.928;2.138;2023-04-23T20:47:04;99543.78;;;19.79;51.20
44825;BME280;30542;47.928;2.138;2023-04-23T20:52:07;99543.78;;;19.79;51.03
44825;BME280;30542;47.928;2.138;2023-04-23T20:57:08;99547.03;;;19.76;51.15
44825;BME280;30542;47.928;2.138;2023-04-23T21:02:09;99565.72;;;19.76;50.74
44825;BME280;30542;47.928;2.138;2023-04-23T21:07:11;99567.06;;;19.73;51.24
44825;BME280;30542;47.928;2.138;2023-04-23T21:12:12;99572.69;;;19.72;51.21
44825;BME280;30542;47.928;2.138;2023-04-23T21:17:12;99569.75;;;19.73;51.15
44825;BME280;30542;47.928;2.138;2023-04-23T21:22:12;99573.22;;;19.74;51.14
44825;BME280;30542;47.928;2.138;2023-04-23T21:27:14;99586.84;;;19.72;51.66
44825;BME280;30542;47.928;2.138;2023-04-23T21:32:17;99574.88;;;19.65;51.14
44825;BME280;30542;47.928;2.138;2023-04-23T21:37:17;99580.78;;;19.61;51.37
44825;BME280;30542;47.928;2.138;2023-04-23T21:42:18;99587.69;;;19.68;51.13
44825;BME280;30542;47.928;2.138;2023-04-23T21:47:18;99589.84;;;19.66;51.08
44825;BME280;30542;47.928;2.138;2023-04-23T21:52:18;99590.13;;;19.64;51.33
44825;BME280;30542;47.928;2.138;2023-04-23T21:57:19;99585.06;;;19.63;51.22
44825;BME280;30542;47.928;2.138;2023-04-23T22:02:19;99591.72;;;19.60;51.30
44825;BME280;30542;47.928;2.138;2023-04-23T22:07:20;99581.09;;;19.55;51.15
44825;BME280;30542;47.928;2.138;2023-04-23T22:12:20;99580.28;;;19.54;51.21
44825;BME280;30542;47.928;2.138;2023-04-23T22:17:20;99593.66;;;19.54;51.65
44825;BME280;30542;47.928;2.138;2023-04-23T22:22:21;99650.53;;;19.55;51.22
44825;BME280;30542;47.928;2.138;2023-04-23T22:27:21;99663.34;;;19.53;51.29
44825;BME280;30542;47.928;2.138;2023-04-23T22:32:21;99657.22;;;19.52;51.51
44825;BME280;30542;47.928;2.138;2023-04-23T22:37:22;99661.75;;;19.52;51.03
44825;BME280;30542;47.928;2.138;2023-04-23T22:42:22;99656.41;;;19.52;51.40
44825;BME280;30542;47.928;2.138;2023-04-23T22:47:23;99662.06;;;19.50;51.24
44825;BME280;30542;47.928;2.138;2023-04-23T22:52:23;99655.38;;;19.48;51.08
44825;BME280;30542;47.928;2.138;2023-04-23T22:57:25;99659.94;;;19.47;50.87
44825;BME280;30542;47.928;2.138;2023-04-23T23:02:25;99667.66;;;19.49;51.15
44825;BME280;30542;47.928;2.138;2023-04-23T23:07:27;99677.81;;;19.47;50.97
44825;BME280;30542;47.928;2.138;2023-04-23T23:12:27;99679.97;;;19.45;50.91
44825;BME280;30542;47.928;2.138;2023-04-23T23:17:27;99694.13;;;19.45;51.13
44825;BME280;30542;47.928;2.138;2023-04-23T23:22:27;99705.06;;;19.44;50.91
44825;BME280;30542;47.928;2.138;2023-04-23T23:27:28;99703.78;;;19.41;50.77
44825;BME280;30542;47.928;2.138;2023-04-23T23:32:28;99716.59;;;19.39;51.05
44825;BME280;30542;47.928;2.138;2023-04-23T23:37:29;99716.88;;;19.37;50.85
44825;BME280;30542;47.928;2.138;2023-04-23T23:42:29;99723.25;;;19.36;50.64
44825;BME280;30542;47.928;2.138;2023-04-23T23:47:30;99721.66;;;19.35;50.78
44825;BME280;30542;47.928;2.138;2023-04-23T23:52:30;99719.28;;;19.34;50.73
44825;BME280;30542;47.928;2.138;2023-04-23T23:57:30;99721.41;;;19.32;50.94
